createdAt,value
2023-04-30T00:02:20.251Z,3.73
2023-04-30T00:07:24.064Z,3.50
2023-04-30T00:12:26.503Z,3.50
2023-04-30T00:17:28.641Z,3.83
2023-04-30T00:22:33.536Z,4.07
2023-04-30T00:27:35.819Z,3.77
2023-04-30T00:32:38.162Z,3.97
2023-04-30T00:37:42.538Z,3.90
2023-04-30T00:42:44.699Z,4.30
2023-04-30T00:47:47.128Z,4.47
2023-04-30T00:52:50.711Z,4.23
2023-04-30T00:57:53.218Z,4.50
2023-04-30T01:02:57.021Z,4.40
2023-04-30T01:08:00.713Z,4.70
2023-04-30T01:13:09.547Z,4.90
2023-04-30T01:18:19.902Z,4.80
2023-04-30T01:23:37.418Z,5.20
2023-04-30T01:28:43.977Z,4.97
2023-04-30T01:33:46.419Z,5.50
2023-04-30T01:39:09.067Z,5.27
2023-04-30T01:44:34.538Z,5.70
2023-04-30T01:49:45.888Z,5.63
2023-04-30T01:54:53.981Z,5.47
2023-04-30T01:59:57.790Z,5.47
2023-04-30T02:04:59.857Z,5.77
2023-04-30T02:10:02.211Z,5.83
2023-04-30T02:15:07.050Z,5.90
2023-04-30T02:20:10.507Z,5.60
2023-04-30T02:25:12.879Z,5.73
2023-04-30T02:30:16.210Z,6.30
2023-04-30T02:35:18.671Z,6.13
2023-04-30T02:40:21.161Z,5.33
2023-04-30T02:45:25.051Z,6.20
2023-04-30T02:50:27.151Z,5.77
2023-04-30T02:55:29.540Z,5.97
2023-04-30T03:00:32.929Z,5.67
2023-04-30T03:05:35.311Z,6.40
2023-04-30T03:10:37.526Z,6.20
2023-04-30T03:15:41.187Z,5.73
2023-04-30T03:20:43.512Z,6.10
2023-04-30T03:25:45.873Z,5.93
2023-04-30T03:30:50.152Z,5.77
2023-04-30T03:35:52.098Z,5.83
2023-04-30T03:40:54.588Z,6.13
2023-04-30T03:45:58.255Z,6.03
2023-04-30T03:51:00.301Z,6.57
2023-04-30T03:56:02.339Z,5.60
2023-04-30T04:01:07.190Z,6.77
2023-04-30T04:06:09.698Z,6.63
2023-04-30T04:11:12.315Z,6.73
2023-04-30T04:16:16.189Z,6.90
2023-04-30T04:21:18.526Z,6.70
2023-04-30T04:26:22.004Z,6.30
2023-04-30T04:31:25.414Z,5.93
2023-04-30T04:36:28.952Z,5.87
2023-04-30T04:41:31.175Z,5.93
2023-04-30T04:46:38.719Z,5.97
2023-04-30T04:51:40.906Z,6.77
2023-04-30T04:56:43.210Z,6.03
2023-04-30T05:01:47.007Z,6.23
2023-04-30T05:06:48.992Z,6.87
2023-04-30T05:11:51.010Z,6.00
2023-04-30T05:16:54.475Z,6.67
2023-04-30T05:21:56.751Z,6.63
2023-04-30T05:26:59.114Z,5.87
2023-04-30T05:32:03.338Z,6.73
2023-04-30T05:37:05.624Z,6.00
2023-04-30T05:42:07.719Z,6.47
2023-04-30T05:47:11.604Z,6.13
2023-04-30T05:52:15.516Z,6.00
2023-04-30T05:57:17.579Z,6.23
2023-04-30T06:02:21.106Z,6.83
2023-04-30T06:07:23.242Z,6.47
2023-04-30T06:12:25.465Z,6.67
2023-04-30T06:17:29.359Z,6.13
2023-04-30T06:22:31.868Z,6.70
2023-04-30T06:27:34.148Z,6.33
2023-04-30T06:32:37.716Z,6.20
2023-04-30T06:37:39.632Z,6.50
2023-04-30T06:42:41.357Z,6.00
2023-04-30T06:47:46.458Z,6.30
2023-04-30T06:52:49.016Z,6.43
2023-04-30T06:57:50.884Z,6.37
2023-04-30T07:03:28.123Z,6.60
2023-04-30T07:09:17.580Z,6.17
2023-04-30T07:14:56.046Z,6.33
2023-04-30T07:19:59.614Z,5.60
2023-04-30T07:25:01.967Z,5.73
2023-04-30T07:30:04.608Z,5.90
2023-04-30T07:35:09.071Z,5.83
2023-04-30T07:40:21.892Z,5.50
2023-04-30T07:45:32.016Z,5.17
2023-04-30T07:50:35.333Z,5.23
2023-04-30T07:55:37.686Z,5.50
2023-04-30T08:00:39.974Z,5.50
2023-04-30T08:05:43.689Z,4.90
2023-04-30T08:10:45.899Z,5.35
2023-04-30T08:15:48.207Z,4.78
2023-04-30T08:20:52.129Z,4.78
2023-04-30T08:25:54.580Z,4.97
2023-04-30T08:30:56.686Z,3.95
2023-04-30T08:36:00.560Z,4.65
2023-04-30T08:41:10.499Z,4.20
2023-04-30T08:46:14.714Z,3.80
2023-04-30T08:51:18.659Z,4.00
2023-04-30T08:56:23.045Z,3.95
2023-04-30T09:01:27.163Z,3.70
2023-04-30T09:06:31.781Z,3.88
2023-04-30T09:11:33.945Z,3.55
2023-04-30T09:16:47.748Z,3.70
2023-04-30T09:21:51.295Z,3.88
2023-04-30T09:26:53.503Z,3.13
2023-04-30T09:32:10.443Z,3.50
2023-04-30T09:37:14.568Z,3.38
2023-04-30T09:42:16.863Z,3.75
2023-04-30T09:47:20.555Z,3.70
2023-04-30T09:52:24.007Z,3.10
2023-04-30T09:57:26.696Z,3.20
2023-04-30T10:02:29.464Z,3.28
2023-04-30T10:07:37.702Z,3.28
2023-04-30T10:12:44.631Z,2.80
2023-04-30T10:17:51.789Z,2.58
2023-04-30T10:22:55.406Z,2.10
2023-04-30T10:27:57.728Z,1.73
2023-04-30T10:33:13.590Z,2.28
2023-04-30T10:38:25.267Z,1.80
2023-04-30T10:43:27.686Z,1.95
2023-04-30T10:48:31.398Z,1.95
2023-04-30T10:53:40.348Z,2.00
2023-04-30T10:58:44.294Z,1.80
2023-04-30T11:04:06.670Z,2.03
2023-04-30T11:09:10.663Z,1.88
2023-04-30T11:14:13.641Z,1.80
2023-04-30T11:19:16.468Z,1.92
2023-04-30T11:24:21.512Z,1.90
2023-04-30T11:29:24.879Z,2.15
2023-04-30T11:34:27.754Z,1.63
2023-04-30T11:39:33.769Z,1.70
2023-04-30T11:44:36.053Z,1.52
2023-04-30T11:49:39.048Z,1.40
2023-04-30T11:54:42.716Z,1.33
2023-04-30T11:59:45.346Z,1.70
2023-04-30T12:04:48.878Z,1.70
2023-04-30T12:09:56.563Z,1.55
2023-04-30T12:14:59.577Z,1.60
2023-04-30T12:20:01.861Z,1.77
2023-04-30T12:25:09.633Z,1.48
2023-04-30T12:30:12.217Z,1.40
2023-04-30T12:35:19.871Z,1.40
2023-04-30T12:40:28.739Z,1.83
2023-04-30T12:45:47.741Z,1.27
2023-04-30T12:50:52.796Z,1.60
2023-04-30T12:56:16.630Z,1.70
2023-04-30T13:01:20.659Z,1.40
2023-04-30T13:06:23.869Z,1.30
2023-04-30T13:11:27.839Z,1.23
2023-04-30T13:16:31.185Z,1.20
2023-04-30T13:21:33.352Z,1.63
2023-04-30T13:26:37.906Z,1.50
2023-04-30T13:31:40.213Z,1.80
2023-04-30T13:36:42.625Z,1.63
2023-04-30T13:41:47.921Z,1.55
2023-04-30T13:46:50.378Z,1.38
2023-04-30T13:51:52.566Z,1.58
2023-04-30T13:56:56.897Z,1.50
2023-04-30T14:01:58.946Z,1.40
2023-04-30T14:07:01.533Z,1.17
2023-04-30T14:12:05.253Z,1.63
2023-04-30T14:17:07.642Z,1.20
2023-04-30T14:22:09.894Z,1.60
2023-04-30T14:27:13.534Z,1.48
2023-04-30T14:32:16.189Z,1.55
2023-04-30T14:37:18.483Z,1.38
2023-04-30T14:42:22.330Z,1.55
2023-04-30T14:47:27.485Z,2.15
2023-04-30T14:52:29.747Z,1.80
2023-04-30T14:57:34.603Z,1.33
2023-04-30T15:02:37.011Z,1.40
2023-04-30T15:07:39.128Z,1.65
2023-04-30T15:12:43.761Z,1.55
2023-04-30T15:17:45.986Z,2.38
2023-04-30T15:22:48.403Z,1.85
2023-04-30T15:27:52.235Z,1.60
2023-04-30T15:32:54.244Z,1.75
2023-04-30T15:37:56.476Z,1.50
2023-04-30T15:42:59.903Z,1.73
2023-04-30T15:48:02.081Z,1.63
2023-04-30T15:53:04.048Z,1.80
2023-04-30T15:58:07.481Z,1.80
2023-04-30T16:03:09.747Z,1.83
2023-04-30T16:08:12.426Z,1.90
2023-04-30T16:13:15.894Z,1.73
2023-04-30T16:18:18.040Z,2.00
2023-04-30T16:23:20.020Z,2.33
2023-04-30T16:28:23.789Z,2.00
2023-04-30T16:33:26.413Z,1.80
2023-04-30T16:38:28.760Z,2.70
2023-04-30T16:43:32.430Z,1.88
2023-04-30T16:48:35.321Z,1.90
2023-04-30T16:53:37.517Z,1.88
2023-04-30T16:58:41.270Z,1.85
2023-04-30T17:03:43.390Z,2.20
2023-04-30T17:08:45.799Z,1.90
2023-04-30T17:13:49.124Z,2.10
2023-04-30T17:18:52.153Z,2.10
2023-04-30T17:23:54.393Z,1.93
2023-04-30T17:28:57.805Z,2.10
2023-04-30T17:34:01.867Z,1.90
2023-04-30T17:39:06.069Z,1.90
2023-04-30T17:44:10.124Z,2.13
2023-04-30T17:49:12.765Z,2.57
2023-04-30T17:54:15.346Z,2.13
2023-04-30T17:59:19.763Z,2.60
2023-04-30T18:04:23.783Z,3.60
2023-04-30T18:09:27.069Z,3.10
2023-04-30T18:14:30.611Z,3.30
2023-04-30T18:19:33.284Z,2.73
2023-04-30T18:24:35.761Z,3.30
2023-04-30T18:29:39.782Z,2.90
2023-04-30T18:34:43.215Z,2.80
2023-04-30T18:39:45.292Z,2.70
2023-04-30T18:44:49.135Z,2.93
2023-04-30T18:49:51.269Z,2.40
2023-04-30T18:54:54.151Z,2.70
2023-04-30T18:59:58.946Z,3.17
2023-04-30T19:05:02.804Z,3.17
2023-04-30T19:10:05.965Z,2.77
2023-04-30T19:15:13.180Z,3.10
2023-04-30T19:20:16.484Z,3.07
2023-04-30T19:25:20.049Z,2.57
2023-04-30T19:30:24.309Z,3.30
2023-04-30T19:35:28.868Z,2.70
2023-04-30T19:40:32.552Z,3.10
2023-04-30T19:45:37.019Z,3.37
2023-04-30T19:50:43.273Z,3.07
2023-04-30T19:55:48.203Z,3.07
2023-04-30T20:00:54.265Z,3.97
2023-04-30T20:05:57.121Z,4.20
2023-04-30T20:11:02.003Z,4.10
2023-04-30T20:16:10.520Z,3.23
2023-04-30T20:21:13.755Z,3.60
2023-04-30T20:26:17.528Z,3.40
2023-04-30T20:31:21.998Z,3.20
2023-04-30T20:36:25.508Z,3.20
2023-04-30T20:41:28.912Z,2.87
2023-04-30T20:46:32.921Z,3.57
2023-04-30T20:51:35.362Z,3.50
2023-04-30T20:56:37.823Z,2.90
2023-04-30T21:01:41.963Z,3.33
2023-04-30T21:06:44.374Z,3.60
2023-04-30T21:11:46.881Z,3.50
2023-04-30T21:16:51.471Z,3.17
2023-04-30T21:21:53.998Z,3.10
2023-04-30T21:26:56.447Z,3.57
2023-04-30T21:31:59.969Z,3.53
2023-04-30T21:37:02.064Z,4.23
2023-04-30T21:42:05.218Z,3.97
2023-04-30T21:47:10.209Z,3.97
2023-04-30T21:52:12.343Z,4.10
2023-04-30T21:57:14.944Z,3.77
2023-04-30T22:02:23.339Z,3.80
2023-04-30T22:07:28.279Z,3.10
2023-04-30T22:12:30.248Z,3.27
2023-04-30T22:17:33.744Z,3.50
2023-04-30T22:22:36.532Z,3.77
2023-04-30T22:27:38.812Z,3.73
2023-04-30T22:32:42.879Z,3.80
2023-04-30T22:37:45.920Z,3.87
2023-04-30T22:42:48.369Z,3.80
2023-04-30T22:47:53.982Z,3.80
2023-04-30T22:52:56.521Z,3.73
2023-04-30T22:58:00.010Z,3.33
2023-04-30T23:03:03.606Z,3.53
2023-04-30T23:08:06.197Z,3.90
2023-04-30T23:13:08.256Z,4.00
2023-04-30T23:18:12.135Z,3.23
2023-04-30T23:23:14.377Z,4.40
2023-04-30T23:28:16.415Z,3.93
2023-04-30T23:33:20.066Z,4.20
2023-04-30T23:38:22.325Z,4.50
2023-04-30T23:43:25.498Z,4.73
2023-04-30T23:48:30.583Z,4.63
2023-04-30T23:53:33.210Z,5.30
2023-04-30T23:58:35.314Z,4.90
